sensor_id;sensor_type;location;lat;lon;timestamp;pressure;altitude;pressure_sealevel;temperature;humidity
45939;BME280;31650;48.818;9.116;2023-07-13T00:03:30;97890.19;;;18.29;80.33
45939;BME280;31650;48.818;9.116;2023-07-13T00:18:35;97886.78;;;17.92;79.37
45939;BME280;31650;48.818;9.116;2023-07-13T00:33:36;97870.31;;;17.97;73.83
45939;BME280;31650;48.818;9.116;2023-07-13T00:48:37;97869.22;;;17.40;79.30
45939;BME280;31650;48.818;9.116;2023-07-13T01:03:38;97875.50;;;16.93;83.06
45939;BME280;31650;48.818;9.116;2023-07-13T01:18:40;97893.06;;;16.59;86.94
45939;BME280;31650;48.818;9.116;2023-07-13T01:33:41;97900.44;;;16.54;84.18
45939;BME280;31650;48.818;9.116;2023-07-13T01:48:41;97911.19;;;16.60;79.93
45939;BME280;31650;48.818;9.116;2023-07-13T02:03:42;97900.19;;;16.88;76.15
45939;BME280;31650;48.818;9.116;2023-07-13T02:18:42;97918.19;;;16.46;79.65
45939;BME280;31650;48.818;9.116;2023-07-13T02:33:43;97916.03;;;16.48;78.85
45939;BME280;31650;48.818;9.116;2023-07-13T02:48:44;97934.28;;;16.10;82.97
45939;BME280;31650;48.818;9.116;2023-07-13T03:03:45;97936.13;;;15.44;94.96
45939;BME280;31650;48.818;9.116;2023-07-13T03:18:46;97953.69;;;15.26;98.44
45939;BME280;31650;48.818;9.116;2023-07-13T03:33:47;97969.41;;;15.52;100.00
45939;BME280;31650;48.818;9.116;2023-07-13T03:48:48;97975.66;;;15.87;100.00
45939;BME280;31650;48.818;9.116;2023-07-13T04:03:48;97984.31;;;16.23;91.47
45939;BME280;31650;48.818;9.116;2023-07-13T04:18:49;97993.88;;;16.42;87.85
45939;BME280;31650;48.818;9.116;2023-07-13T04:33:49;97997.38;;;16.37;90.34
45939;BME280;31650;48.818;9.116;2023-07-13T04:48:50;98011.28;;;15.87;96.23
45939;BME280;31650;48.818;9.116;2023-07-13T05:03:53;98021.53;;;15.74;100.00
45939;BME280;31650;48.818;9.116;2023-07-13T05:18:55;98013.66;;;16.71;87.35
45939;BME280;31650;48.818;9.116;2023-07-13T05:33:55;98021.94;;;17.68;75.66
45939;BME280;31650;48.818;9.116;2023-07-13T05:48:56;98009.47;;;17.98;71.30
45939;BME280;31650;48.818;9.116;2023-07-13T06:03:56;98030.09;;;18.63;67.63
45939;BME280;31650;48.818;9.116;2023-07-13T06:18:57;98043.44;;;19.07;61.70
45939;BME280;31650;48.818;9.116;2023-07-13T06:33:57;98057.53;;;19.36;63.56
45939;BME280;31650;48.818;9.116;2023-07-13T06:48:57;98068.31;;;20.70;54.97
45939;BME280;31650;48.818;9.116;2023-07-13T07:03:58;98082.25;;;20.94;52.94
45939;BME280;31650;48.818;9.116;2023-07-13T07:18:58;98080.66;;;22.01;51.40
45939;BME280;31650;48.818;9.116;2023-07-13T07:33:58;98074.09;;;22.45;49.31
45939;BME280;31650;48.818;9.116;2023-07-13T07:48:59;98071.44;;;23.21;45.81
45939;BME280;31650;48.818;9.116;2023-07-13T08:03:59;98088.84;;;23.26;45.40
45939;BME280;31650;48.818;9.116;2023-07-13T08:18:59;98079.53;;;24.76;43.68
45939;BME280;31650;48.818;9.116;2023-07-13T08:34:00;98087.00;;;24.89;43.53
45939;BME280;31650;48.818;9.116;2023-07-13T08:49:09;98091.28;;;25.23;41.05
45939;BME280;31650;48.818;9.116;2023-07-13T09:04:21;98082.72;;;26.63;40.73
45939;BME280;31650;48.818;9.116;2023-07-13T09:19:28;98101.53;;;24.86;41.25
45939;BME280;31650;48.818;9.116;2023-07-13T09:34:30;98102.19;;;24.69;40.45
45939;BME280;31650;48.818;9.116;2023-07-13T09:49:35;98086.94;;;24.80;40.78
45939;BME280;31650;48.818;9.116;2023-07-13T10:04:36;98083.31;;;25.44;39.32
45939;BME280;31650;48.818;9.116;2023-07-13T10:19:36;98075.63;;;27.14;36.47
45939;BME280;31650;48.818;9.116;2023-07-13T10:34:37;98078.94;;;26.59;36.87
45939;BME280;31650;48.818;9.116;2023-07-13T10:49:37;98079.53;;;26.07;39.00
45939;BME280;31650;48.818;9.116;2023-07-13T11:04:45;98068.88;;;26.49;40.03
45939;BME280;31650;48.818;9.116;2023-07-13T11:19:47;98057.38;;;27.08;35.47
45939;BME280;31650;48.818;9.116;2023-07-13T11:34:51;98047.00;;;25.49;39.52
45939;BME280;31650;48.818;9.116;2023-07-13T11:49:55;98028.00;;;28.66;37.02
45939;BME280;31650;48.818;9.116;2023-07-13T12:05:00;98057.97;;;28.18;33.49
45939;BME280;31650;48.818;9.116;2023-07-13T12:20:04;98058.13;;;26.25;34.92
45939;BME280;31650;48.818;9.116;2023-07-13T12:35:15;98029.31;;;29.19;32.74
45939;BME280;31650;48.818;9.116;2023-07-13T12:50:17;98045.47;;;28.63;34.37
45939;BME280;31650;48.818;9.116;2023-07-13T13:05:18;98046.75;;;27.71;32.85
45939;BME280;31650;48.818;9.116;2023-07-13T13:20:20;98032.31;;;27.43;33.51
45939;BME280;31650;48.818;9.116;2023-07-13T13:35:21;98020.31;;;27.34;34.01
45939;BME280;31650;48.818;9.116;2023-07-13T13:50:22;98017.69;;;28.19;32.96
45939;BME280;31650;48.818;9.116;2023-07-13T14:05:23;98003.94;;;28.74;32.24
45939;BME280;31650;48.818;9.116;2023-07-13T14:20:26;98007.31;;;27.55;32.03
45939;BME280;31650;48.818;9.116;2023-07-13T14:35:26;98017.31;;;27.91;32.35
45939;BME280;31650;48.818;9.116;2023-07-13T14:50:30;98035.38;;;26.98;33.83
45939;BME280;31650;48.818;9.116;2023-07-13T15:05:31;98021.47;;;27.41;34.44
45939;BME280;31650;48.818;9.116;2023-07-13T15:20:33;98024.38;;;26.75;34.60
45939;BME280;31650;48.818;9.116;2023-07-13T15:35:35;98035.69;;;26.70;35.38
45939;BME280;31650;48.818;9.116;2023-07-13T15:50:45;98021.53;;;26.18;34.71
45939;BME280;31650;48.818;9.116;2023-07-13T16:05:46;98025.97;;;25.88;35.65
45939;BME280;31650;48.818;9.116;2023-07-13T16:20:48;98021.19;;;25.57;36.53
45939;BME280;31650;48.818;9.116;2023-07-13T16:35:49;98030.38;;;25.35;36.82
45939;BME280;31650;48.818;9.116;2023-07-13T16:50:51;98038.22;;;25.33;36.94
45939;BME280;31650;48.818;9.116;2023-07-13T17:05:52;98046.44;;;24.88;38.28
45939;BME280;31650;48.818;9.116;2023-07-13T17:20:53;98049.25;;;24.60;38.16
45939;BME280;31650;48.818;9.116;2023-07-13T17:35:54;98046.38;;;24.10;40.16
45939;BME280;31650;48.818;9.116;2023-07-13T17:50:55;98060.53;;;23.95;40.67
45939;BME280;31650;48.818;9.116;2023-07-13T18:05:56;98063.78;;;23.50;41.92
45939;BME280;31650;48.818;9.116;2023-07-13T18:20:56;98075.78;;;23.08;43.37
45939;BME280;31650;48.818;9.116;2023-07-13T18:35:57;98086.69;;;22.56;44.72
45939;BME280;31650;48.818;9.116;2023-07-13T18:50:58;98102.09;;;22.14;45.53
45939;BME280;31650;48.818;9.116;2023-07-13T19:06:01;98115.13;;;21.45;48.34
45939;BME280;31650;48.818;9.116;2023-07-13T19:21:07;98126.22;;;20.85;49.64
45939;BME280;31650;48.818;9.116;2023-07-13T19:36:10;98142.94;;;20.44;51.26
45939;BME280;31650;48.818;9.116;2023-07-13T19:51:32;98159.03;;;20.11;52.25
45939;BME280;31650;48.818;9.116;2023-07-13T20:06:45;98183.25;;;19.58;54.29
45939;BME280;31650;48.818;9.116;2023-07-13T20:22:04;98194.50;;;18.73;58.63
45939;BME280;31650;48.818;9.116;2023-07-13T20:37:35;98208.13;;;18.05;63.97
45939;BME280;31650;48.818;9.116;2023-07-13T20:52:43;98206.44;;;17.72;68.83
45939;BME280;31650;48.818;9.116;2023-07-13T21:07:47;98214.22;;;17.53;74.26
45939;BME280;31650;48.818;9.116;2023-07-13T21:22:48;98206.25;;;17.51;72.12
45939;BME280;31650;48.818;9.116;2023-07-13T21:37:50;98213.59;;;17.45;70.81
45939;BME280;31650;48.818;9.116;2023-07-13T21:52:52;98221.09;;;17.55;73.05
45939;BME280;31650;48.818;9.116;2023-07-13T22:07:52;98221.84;;;17.45;76.27
45939;BME280;31650;48.818;9.116;2023-07-13T22:22:53;98231.63;;;17.36;75.55
45939;BME280;31650;48.818;9.116;2023-07-13T22:37:53;98237.22;;;16.97;78.74
45939;BME280;31650;48.818;9.116;2023-07-13T22:52:59;98228.91;;;16.92;80.65
45939;BME280;31650;48.818;9.116;2023-07-13T23:07:59;98230.78;;;16.70;78.95
45939;BME280;31650;48.818;9.116;2023-07-13T23:23:00;98226.22;;;16.19;86.54
45939;BME280;31650;48.818;9.116;2023-07-13T23:38:01;98219.16;;;16.07;88.01
45939;BME280;31650;48.818;9.116;2023-07-13T23:53:02;98221.38;;;15.76;92.35
